Time;durP1;ratioP1;P1;durP2;ratioP2;P2;SDS_P1;SDS_P2;PMS_P1;PMS_P2;Temp;Humidity;BMP_temperature;BMP_pressure;BME280_temperature;BME280_humidity;BME280_pressure;Samples;Min_cycle;Max_cycle;Signal;HPM_P1;HPM_P2
2023/10/29 00:01:11;;;;;;;;;;;;;;;;;;6281851;28;20369;-78
2023/10/29 00:04:11;;;;;;;;;;;;;;;;;;6279951;28;19924;-79
2023/10/29 00:07:11;;;;;;;;;;;;;;;;;;6278679;28;19948;-82
2023/10/29 00:10:11;;;;;;;;;;;;;;;;;;6281702;28;20361;-77
2023/10/29 00:13:12;;;;;;;;;;;;;;;;;;6295588;28;20007;-81
2023/10/29 00:16:13;;;;;;;;;;;;;;;;;;6283144;28;20507;-77
2023/10/29 00:19:13;;;;;;;;;;;;;;;;;;6279087;28;19936;-77
2023/10/29 00:22:13;;;;;;;;;;;;;;;;;;6275202;28;19929;-77
2023/10/29 00:25:13;;;;;;;;;;;;;;;;;;6280907;28;19921;-77
2023/10/29 00:28:13;;;;;;;;;;;;;;;;;;6278615;28;19920;-77
2023/10/29 00:31:13;;;;;;;;;;;;;;;;;;6280484;28;19913;-77
2023/10/29 00:34:13;;;;;;;;;;;;;;;;;;6276673;28;19917;-77
2023/10/29 00:37:13;;;;;;;;;;;;;;;;;;6278242;28;19912;-77
2023/10/29 00:40:14;;;;;;;;;;;;;;;;;;6279403;28;19917;-79
2023/10/29 00:43:14;;;;;;;;;;;;;;;;;;6278049;28;19929;-77
2023/10/29 00:46:14;;;;;;;;;;;;;;;;;;6282998;28;20389;-77
2023/10/29 00:49:15;;;;;;;;;;;;;;;;;;6278751;28;20059;-80
2023/10/29 00:52:15;;;;;;;;;;;;;;;;;;6283571;28;20007;-79
2023/10/29 00:55:15;;;;;;;;;;;;;;;;;;6281473;28;20396;-81
2023/10/29 00:58:16;;;;;;;;;;;;;;;;;;6284199;28;19923;-79
2023/10/29 01:01:16;;;;;;;;;;;;;;;;;;6281712;28;20381;-80
2023/10/29 01:04:16;;;;;;;;;;;;;;;;;;6280300;28;19925;-80
2023/10/29 01:07:17;;;;;;;;;;;;;;;;;;6280499;28;19920;-79
2023/10/29 01:10:17;;;;;;;;;;;;;;;;;;6281097;28;19926;-79
2023/10/29 01:13:17;;;;;;;;;;;;;;;;;;6279105;28;19928;-82
2023/10/29 01:16:17;;;;;;;;;;;;;;;;;;6280172;28;20046;-80
2023/10/29 01:19:17;;;;;;;;;;;;;;;;;;6275706;28;19923;-82
2023/10/29 01:22:18;;;;;;;;;;;;;;;;;;6276946;28;20266;-81
2023/10/29 01:25:18;;;;;;;;;;;;;;;;;;6276593;28;19963;-80
2023/10/29 01:28:18;;;;;;;;;;;;;;;;;;6277313;28;19912;-79
2023/10/29 01:31:18;;;;;;;;;;;;;;;;;;6279247;28;19927;-80
2023/10/29 01:34:18;;;;;;;;;;;;;;;;;;6277492;28;19913;-80
2023/10/29 01:37:18;;;;;;;;;;;;;;;;;;6278336;28;19920;-81
2023/10/29 01:40:18;;;;;;;;;;;;;;;;;;6278336;28;19913;-80
2023/10/29 01:43:18;;;;;;;;;;;;;;;;;;6278675;28;20332;-80
2023/10/29 01:46:18;;;;;;;;;;;;;;;;;;6282988;28;20380;-80
2023/10/29 01:49:19;;;;;;;;;;;;;;;;;;6277144;28;19943;-80
2023/10/29 01:52:19;;;;;;;;;;;;;;;;;;6279820;28;20388;-80
2023/10/29 01:55:19;;;;;;;;;;;;;;;;;;6279021;28;20456;-80
2023/10/29 01:58:19;;;;;;;;;;;;;;;;;;6276930;28;19917;-77
2023/10/29 02:01:19;;;;;;;;;;;;;;;;;;6276383;28;19920;-78
2023/10/29 02:04:26;;;;;;;;;;;;;;;;;;6278936;28;20653;-77
2023/10/29 02:07:26;;;;;;;;;;;;;;;;;;6275659;28;19917;-77
2023/10/29 02:10:26;;;;;;;;;;;;;;;;;;6299044;28;20060;-77
2023/10/29 02:13:26;;;;;;;;;;;;;;;;;;6281728;28;19912;-77
2023/10/29 02:16:27;;;;;;;;;;;;;;;;;;6278120;28;19948;-80
2023/10/29 02:19:27;;;;;;;;;;;;;;;;;;6279015;28;19932;-77
2023/10/29 02:22:30;;;;;;;;;;;;;;;;;;6275588;28;19921;-78
2023/10/29 02:25:30;;;;;;;;;;;;;;;;;;6294440;28;20365;-77
2023/10/29 02:28:30;;;;;;;;;;;;;;;;;;6277875;28;20058;-77
2023/10/29 02:31:30;;;;;;;;;;;;;;;;;;6279606;28;19949;-77
2023/10/29 02:34:30;;;;;;;;;;;;;;;;;;6278717;28;19920;-78
2023/10/29 02:37:30;;;;;;;;;;;;;;;;;;6277079;28;19923;-77
2023/10/29 02:40:31;;;;;;;;;;;;;;;;;;6293207;28;19913;-80
2023/10/29 02:43:31;;;;;;;;;;;;;;;;;;6277307;28;19970;-77
2023/10/29 02:46:31;;;;;;;;;;;;;;;;;;6281595;28;19916;-78
2023/10/29 02:49:31;;;;;;;;;;;;;;;;;;6275945;28;19919;-77
2023/10/29 02:52:31;;;;;;;;;;;;;;;;;;6278162;28;19920;-78
2023/10/29 02:55:31;;;;;;;;;;;;;;;;;;6281928;28;19920;-77
2023/10/29 02:58:31;;;;;;;;;;;;;;;;;;6282057;28;19919;-77
2023/10/29 03:01:31;;;;;;;;;;;;;;;;;;6279423;28;19913;-77
2023/10/29 03:04:32;;;;;;;;;;;;;;;;;;6292441;28;19979;-78
2023/10/29 03:07:32;;;;;;;;;;;;;;;;;;6287027;28;20356;-78
2023/10/29 03:10:35;;;;;;;;;;;;;;;;;;6279314;28;19938;-77
2023/10/29 03:13:36;;;;;;;;;;;;;;;;;;6280834;28;19913;-77
2023/10/29 03:16:36;;;;;;;;;;;;;;;;;;6276287;28;20411;-77
2023/10/29 03:19:36;;;;;;;;;;;;;;;;;;6292074;28;19921;-77
2023/10/29 03:22:36;;;;;;;;;;;;;;;;;;6277981;28;19974;-77
2023/10/29 03:25:36;;;;;;;;;;;;;;;;;;6277726;28;19962;-77
2023/10/29 03:28:37;;;;;;;;;;;;;;;;;;6280190;28;19982;-77
2023/10/29 03:31:38;;;;;;;;;;;;;;;;;;6281212;28;20032;-77
2023/10/29 03:34:38;;;;;;;;;;;;;;;;;;6277398;28;19917;-77
2023/10/29 03:37:38;;;;;;;;;;;;;;;;;;6279060;28;20412;-78
2023/10/29 03:40:39;;;;;;;;;;;;;;;;;;6280100;28;19913;-77
2023/10/29 03:43:39;;;;;;;;;;;;;;;;;;6279489;28;20295;-77
2023/10/29 03:46:39;;;;;;;;;;;;;;;;;;6282698;28;19924;-78
2023/10/29 03:49:39;;;;;;;;;;;;;;;;;;6282008;28;19919;-78
2023/10/29 03:52:40;;;;;;;;;;;;;;;;;;6285475;28;19952;-77
2023/10/29 03:55:40;;;;;;;;;;;;;;;;;;6278114;28;19921;-77
2023/10/29 03:58:40;;;;;;;;;;;;;;;;;;6279535;28;19963;-77
2023/10/29 04:01:40;;;;;;;;;;;;;;;;;;6278251;28;19924;-77
2023/10/29 04:04:40;;;;;;;;;;;;;;;;;;6278200;28;19932;-77
2023/10/29 04:07:40;;;;;;;;;;;;;;;;;;6286825;28;19965;-78
2023/10/29 04:10:40;;;;;;;;;;;;;;;;;;6284371;28;19920;-81
2023/10/29 04:13:40;;;;;;;;;;;;;;;;;;6276903;28;19924;-82
2023/10/29 04:16:41;;;;;;;;;;;;;;;;;;6280360;28;19934;-77
2023/10/29 04:19:41;;;;;;;;;;;;;;;;;;6280357;28;19916;-79
2023/10/29 04:22:41;;;;;;;;;;;;;;;;;;6284085;28;19975;-79
2023/10/29 04:25:43;;;;;;;;;;;;;;;;;;6284227;28;19917;-78
2023/10/29 04:28:43;;;;;;;;;;;;;;;;;;6282255;28;19995;-78
2023/10/29 04:31:43;;;;;;;;;;;;;;;;;;6276658;28;19932;-78
2023/10/29 04:34:43;;;;;;;;;;;;;;;;;;6296227;28;19966;-78
2023/10/29 04:37:43;;;;;;;;;;;;;;;;;;6297542;28;20017;-77
2023/10/29 04:40:44;;;;;;;;;;;;;;;;;;6297955;28;19908;-78
2023/10/29 04:43:44;;;;;;;;;;;;;;;;;;6295867;28;20023;-77
2023/10/29 04:46:44;;;;;;;;;;;;;;;;;;6300299;28;19916;-77
2023/10/29 04:49:44;;;;;;;;;;;;;;;;;;6294011;28;19919;-78
2023/10/29 04:52:44;;;;;;;;;;;;;;;;;;6296667;28;19908;-76
2023/10/29 04:55:45;;;;;;;;;;;;;;;;;;6295751;28;20319;-79
2023/10/29 04:58:45;;;;;;;;;;;;;;;;;;6289827;28;19912;-77
2023/10/29 05:01:45;;;;;;;;;;;;;;;;;;6296006;28;19916;-76
2023/10/29 05:04:45;;;;;;;;;;;;;;;;;;6294744;28;20348;-77
2023/10/29 05:07:45;;;;;;;;;;;;;;;;;;6296189;28;19912;-77
2023/10/29 05:10:46;;;;;;;;;;;;;;;;;;6295676;28;19912;-77
2023/10/29 05:13:46;;;;;;;;;;;;;;;;;;6297529;28;20376;-77
2023/10/29 05:16:46;;;;;;;;;;;;;;;;;;6296532;28;19916;-77
2023/10/29 05:19:47;;;;;;;;;;;;;;;;;;6272788;28;19919;-77
2023/10/29 05:22:47;;;;;;;;;;;;;;;;;;6285780;28;20022;-77
2023/10/29 05:25:47;;;;;;;;;;;;;;;;;;6297385;28;20429;-77
2023/10/29 05:28:47;;;;;;;;;;;;;;;;;;6296460;28;19912;-79
2023/10/29 05:31:47;;;;;;;;;;;;;;;;;;6295844;28;19986;-78
2023/10/29 05:34:47;;;;;;;;;;;;;;;;;;6295210;28;20345;-77
2023/10/29 05:37:48;;;;;;;;;;;;;;;;;;6297955;28;19909;-77
2023/10/29 05:40:48;;;;;;;;;;;;;;;;;;6275292;28;20001;-77
2023/10/29 05:43:48;;;;;;;;;;;;;;;;;;6279590;28;19928;-80
2023/10/29 05:46:48;;;;;;;;;;;;;;;;;;6300383;28;19909;-78
2023/10/29 05:49:48;;;;;;;;;;;;;;;;;;6287006;28;20404;-77
2023/10/29 05:52:48;;;;;;;;;;;;;;;;;;6305950;28;20266;-78
2023/10/29 05:55:48;;;;;;;;;;;;;;;;;;6284504;28;20327;-78
2023/10/29 05:58:49;;;;;;;;;;;;;;;;;;6290450;28;20297;-78
2023/10/29 06:01:49;;;;;;;;;;;;;;;;;;6289192;28;19913;-78
2023/10/29 06:04:49;;;;;;;;;;;;;;;;;;6294777;28;20301;-78
2023/10/29 06:07:50;;;;;;;;;;;;;;;;;;6296071;28;19920;-78
2023/10/29 06:10:53;;;;;;;;;;;;;;;;;;6296635;28;19960;-77
2023/10/29 06:13:53;;;;;;;;;;;;;;;;;;6287678;28;19999;-77
2023/10/29 06:16:56;;;;;;;;;;;;;;;;;;6272693;28;19923;-77
2023/10/29 06:19:57;;;;;;;;;;;;;;;;;;6274751;28;19962;-77
2023/10/29 06:22:57;;;;;;;;;;;;;;;;;;6294763;28;19920;-79
2023/10/29 06:25:59;;;;;;;;;;;;;;;;;;6294116;28;20486;-77
2023/10/29 06:28:59;;;;;;;;;;;;;;;;;;6273219;28;19921;-77
2023/10/29 06:31:59;;;;;;;;;;;;;;;;;;6278044;28;19916;-77
2023/10/29 06:34:59;;;;;;;;;;;;;;;;;;6282296;28;19919;-77
2023/10/29 06:37:59;;;;;;;;;;;;;;;;;;6288365;28;20011;-79
2023/10/29 06:41:00;;;;;;;;;;;;;;;;;;6282423;28;19927;-80
2023/10/29 06:44:00;;;;;;;;;;;;;;;;;;6279656;28;19969;-79
2023/10/29 06:47:01;;;;;;;;;;;;;;;;;;6279949;28;19969;-82
2023/10/29 06:50:01;;;;;;;;;;;;;;;;;;6272990;28;19927;-81
2023/10/29 06:53:02;;;;;;;;;;;;;;;;;;6301547;28;20292;-79
2023/10/29 06:56:02;;;;;;;;;;;;;;;;;;6278863;28;19916;-79
2023/10/29 06:59:02;;;;;;;;;;;;;;;;;;6289017;28;20085;-79
2023/10/29 07:02:02;;;;;;;;;;;;;;;;;;6294598;28;19908;-83
2023/10/29 07:05:03;;;;;;;;;;;;;;;;;;6277786;28;20343;-80
2023/10/29 07:08:03;;;;;;;;;;;;;;;;;;6271675;28;19916;-80
2023/10/29 07:11:04;;;;;;;;;;;;;;;;;;6288492;28;19985;-80
2023/10/29 07:14:04;;;;;;;;;;;;;;;;;;6311354;28;20269;-79
2023/10/29 07:17:04;;;;;;;;;;;;;;;;;;6285875;28;20316;-80
2023/10/29 07:20:04;;;;;;;;;;;;;;;;;;6282631;28;20373;-79
2023/10/29 07:23:04;;;;;;;;;;;;;;;;;;6285605;28;20392;-80
2023/10/29 07:26:04;;;;;;;;;;;;;;;;;;6281055;28;19919;-80
2023/10/29 07:29:05;;;;;;;;;;;;;;;;;;6280755;28;20399;-81
2023/10/29 07:32:05;;;;;;;;;;;;;;;;;;6303593;28;19913;-79
2023/10/29 07:35:05;;;;;;;;;;;;;;;;;;6283445;28;20699;-81
2023/10/29 07:38:05;;;;;;;;;;;;;;;;;;6278454;28;19912;-81
2023/10/29 07:41:05;;;;;;;;;;;;;;;;;;6283029;28;20401;-80
2023/10/29 07:44:05;;;;;;;;;;;;;;;;;;6280728;28;19928;-81
2023/10/29 07:47:08;;;;;;;;;;;;;;;;;;6271440;28;19912;-78
2023/10/29 07:50:08;;;;;;;;;;;;;;;;;;6296928;28;19916;-78
2023/10/29 07:53:08;;;;;;;;;;;;;;;;;;6281971;28;20306;-78
2023/10/29 07:56:08;;;;;;;;;;;;;;;;;;6283136;28;19912;-78
2023/10/29 07:59:08;;;;;;;;;;;;;;;;;;6277062;28;19928;-79
2023/10/29 08:02:09;;;;;;;;;;;;;;;;;;6304015;28;20253;-81
2023/10/29 08:05:11;;;;;;;;;;;;;;;;;;6288971;28;19924;-78
2023/10/29 08:08:12;;;;;;;;;;;;;;;;;;6288697;28;19912;-79
2023/10/29 08:11:12;;;;;;;;;;;;;;;;;;6279055;28;19939;-79
2023/10/29 08:14:12;;;;;;;;;;;;;;;;;;6297102;28;19912;-79
2023/10/29 08:17:17;;;;;;;;;;;;;;;;;;6278940;28;19921;-79
2023/10/29 08:20:17;;;;;;;;;;;;;;;;;;6283170;28;19978;-79
2023/10/29 08:23:17;;;;;;;;;;;;;;;;;;6279185;28;19929;-79
2023/10/29 08:26:17;;;;;;;;;;;;;;;;;;6281499;28;19962;-78
2023/10/29 08:29:17;;;;;;;;;;;;;;;;;;6283397;28;19966;-77
2023/10/29 08:32:17;;;;;;;;;;;;;;;;;;6281787;28;19955;-79
2023/10/29 08:35:17;;;;;;;;;;;;;;;;;;6278251;28;19919;-80
2023/10/29 08:38:19;;;;;;;;;;;;;;;;;;6279150;28;19920;-78
2023/10/29 08:41:19;;;;;;;;;;;;;;;;;;6279516;28;19921;-79
2023/10/29 08:44:19;;;;;;;;;;;;;;;;;;6281762;28;20062;-79
2023/10/29 08:47:19;;;;;;;;;;;;;;;;;;6295785;28;19912;-79
2023/10/29 08:50:20;;;;;;;;;;;;;;;;;;6300482;28;19982;-78
2023/10/29 08:53:20;;;;;;;;;;;;;;;;;;6299608;28;19955;-81
2023/10/29 08:56:20;;;;;;;;;;;;;;;;;;6282289;28;19961;-80
2023/10/29 08:59:20;;;;;;;;;;;;;;;;;;6280416;28;19962;-86
2023/10/29 09:02:20;;;;;;;;;;;;;;;;;;6277448;28;19917;-87
2023/10/29 09:05:20;;;;;;;;;;;;;;;;;;6297442;28;20354;-86
2023/10/29 09:08:21;;;;;;;;;;;;;;;;;;6280908;28;20320;-83
2023/10/29 09:11:21;;;;;;;;;;;;;;;;;;6278054;28;19916;-83
2023/10/29 09:14:21;;;;;;;;;;;;;;;;;;6279341;28;19916;-82
2023/10/29 09:17:21;;;;;;;;;;;;;;;;;;6279270;28;19939;-82
2023/10/29 09:20:21;;;;;;;;;;;;;;;;;;6290900;28;20339;-85
2023/10/29 09:23:23;;;;;;;;;;;;;;;;;;6282140;28;19947;-87
2023/10/29 09:26:23;;;;;;;;;;;;;;;;;;6280961;28;19968;-87
2023/10/29 09:29:23;;;;;;;;;;;;;;;;;;6279275;28;19985;-85
2023/10/29 09:32:24;;;;;;;;;;;;;;;;;;6277292;28;19919;-85
2023/10/29 09:35:24;;;;;;;;;;;;;;;;;;6295657;28;19974;-88
2023/10/29 09:38:24;;;;;;;;;;;;;;;;;;6279030;28;19996;-85
2023/10/29 09:41:24;;;;;;;;;;;;;;;;;;6286265;28;19920;-86
2023/10/29 09:44:25;;;;;;;;;;;;;;;;;;6276118;28;19921;-81
2023/10/29 09:47:25;;;;;;;;;;;;;;;;;;6283520;28;19912;-84
2023/10/29 09:50:25;;;;;;;;;;;;;;;;;;6280453;28;19912;-82
2023/10/29 09:53:25;;;;;;;;;;;;;;;;;;6277183;28;20435;-82
2023/10/29 09:56:26;;;;;;;;;;;;;;;;;;6294532;28;19924;-83
2023/10/29 09:59:26;;;;;;;;;;;;;;;;;;6279760;28;19921;-82
2023/10/29 10:02:26;;;;;;;;;;;;;;;;;;6277352;28;19913;-80
2023/10/29 10:05:28;;;;;;;;;;;;;;;;;;6276942;28;19978;-82
2023/10/29 10:08:28;;;;;;;;;;;;;;;;;;6281191;28;19919;-78
2023/10/29 10:11:28;;;;;;;;;;;;;;;;;;6278681;28;19916;-78
2023/10/29 10:14:28;;;;;;;;;;;;;;;;;;6279663;28;19913;-78
2023/10/29 10:17:29;;;;;;;;;;;;;;;;;;6281707;28;20284;-78
2023/10/29 10:20:29;;;;;;;;;;;;;;;;;;6276391;28;19924;-79
2023/10/29 10:23:30;;;;;;;;;;;;;;;;;;6278545;28;19967;-79
2023/10/29 10:26:30;;;;;;;;;;;;;;;;;;6280406;28;19917;-79
2023/10/29 10:29:34;;;;;;;;;;;;;;;;;;6277267;28;20360;-78
2023/10/29 10:32:34;;;;;;;;;;;;;;;;;;6299113;28;19921;-79
2023/10/29 10:35:34;;;;;;;;;;;;;;;;;;6279280;28;20007;-79
2023/10/29 10:38:34;;;;;;;;;;;;;;;;;;5928357;28;9999615;-86
2023/10/29 10:41:34;;;;;;;;;;;;;;;;;;6274796;28;20304;-81
2023/10/29 10:44:34;;;;;;;;;;;;;;;;;;6278828;28;20411;-79
2023/10/29 10:47:35;;;;;;;;;;;;;;;;;;6271435;28;19929;-82
2023/10/29 10:50:35;;;;;;;;;;;;;;;;;;6281580;28;19916;-79
2023/10/29 10:53:35;;;;;;;;;;;;;;;;;;6282751;28;20300;-79
2023/10/29 10:56:35;;;;;;;;;;;;;;;;;;6299717;28;20384;-80
2023/10/29 10:59:35;;;;;;;;;;;;;;;;;;6301213;28;19923;-80
2023/10/29 11:02:36;;;;;;;;;;;;;;;;;;6284085;28;19949;-80
2023/10/29 11:05:37;;;;;;;;;;;;;;;;;;6277545;28;19924;-80
2023/10/29 11:08:37;;;;;;;;;;;;;;;;;;6277463;28;19958;-79
2023/10/29 11:11:38;;;;;;;;;;;;;;;;;;6278568;28;20008;-79
2023/10/29 11:14:38;;;;;;;;;;;;;;;;;;6283147;28;19925;-80
2023/10/29 11:17:39;;;;;;;;;;;;;;;;;;6280237;28;20023;-80
2023/10/29 11:20:39;;;;;;;;;;;;;;;;;;6296571;28;20288;-80
2023/10/29 11:23:39;;;;;;;;;;;;;;;;;;6297570;28;20266;-80
2023/10/29 11:26:39;;;;;;;;;;;;;;;;;;6282854;28;20424;-87
2023/10/29 11:29:39;;;;;;;;;;;;;;;;;;6303905;28;19920;-80
2023/10/29 11:32:40;;;;;;;;;;;;;;;;;;6299678;28;19920;-80
2023/10/29 11:35:40;;;;;;;;;;;;;;;;;;6301525;28;19912;-80
2023/10/29 11:38:40;;;;;;;;;;;;;;;;;;6298260;28;19913;-80
2023/10/29 11:41:40;;;;;;;;;;;;;;;;;;6303525;28;19919;-80
2023/10/29 11:44:41;;;;;;;;;;;;;;;;;;6305502;28;19928;-80
2023/10/29 11:47:41;;;;;;;;;;;;;;;;;;6305952;28;21216;-80
2023/10/29 11:50:42;;;;;;;;;;;;;;;;;;6307837;28;19923;-85
2023/10/29 11:53:42;;;;;;;;;;;;;;;;;;6325410;28;19956;-81
2023/10/29 11:56:42;;;;;;;;;;;;;;;;;;6302438;28;19923;-81
2023/10/29 11:59:42;;;;;;;;;;;;;;;;;;6299726;28;19916;-85
2023/10/29 12:02:42;;;;;;;;;;;;;;;;;;6307302;28;20361;-83
2023/10/29 12:05:42;;;;;;;;;;;;;;;;;;6299589;28;19998;-81
2023/10/29 12:08:42;;;;;;;;;;;;;;;;;;6297916;28;19917;-82
2023/10/29 12:11:42;;;;;;;;;;;;;;;;;;6302601;28;19916;-83
2023/10/29 12:14:46;;;;;;;;;;;;;;;;;;6303102;28;20001;-83
2023/10/29 12:17:47;;;;;;;;;;;;;;;;;;6322402;28;19974;-80
2023/10/29 12:20:47;;;;;;;;;;;;;;;;;;5953305;28;10000583;-81
2023/10/29 12:23:49;;;;;;;;;;;;;;;;;;6309597;28;20369;-84
2023/10/29 12:26:49;;;;;;;;;;;;;;;;;;6321199;28;19955;-82
2023/10/29 12:29:49;;;;;;;;;;;;;;;;;;6302521;28;19912;-79
2023/10/29 12:32:49;;;;;;;;;;;;;;;;;;6303046;28;19916;-82
2023/10/29 12:35:50;;;;;;;;;;;;;;;;;;6315945;28;19957;-83
2023/10/29 12:38:50;;;;;;;;;;;;;;;;;;6323228;28;19912;-83
2023/10/29 12:41:51;;;;;;;;;;;;;;;;;;6322780;28;19920;-83
2023/10/29 12:44:52;;;;;;;;;;;;;;;;;;6310150;28;20392;-83
2023/10/29 12:47:53;;;;;;;;;;;;;;;;;;6312468;28;19995;-83
2023/10/29 12:50:54;;;;;;;;;;;;;;;;;;6301621;28;19922;-83
2023/10/29 12:53:55;;;;;;;;;;;;;;;;;;6306862;28;20276;-83
2023/10/29 12:56:55;;;;;;;;;;;;;;;;;;6305810;28;19916;-84
2023/10/29 12:59:55;;;;;;;;;;;;;;;;;;6303485;28;19920;-84
2023/10/29 13:02:55;;;;;;;;;;;;;;;;;;6330764;27;20330;-83
2023/10/29 13:05:55;;;;;;;;;;;;;;;;;;6302078;28;19913;-83
2023/10/29 13:08:56;;;;;;;;;;;;;;;;;;6319889;28;19920;-83
2023/10/29 13:11:56;;;;;;;;;;;;;;;;;;6315804;28;19912;-83
2023/10/29 13:14:56;;;;;;;;;;;;;;;;;;6321125;28;20379;-83
2023/10/29 13:17:56;;;;;;;;;;;;;;;;;;6313599;28;19923;-84
2023/10/29 13:20:56;;;;;;;;;;;;;;;;;;6318239;28;19912;-83
2023/10/29 13:23:57;;;;;;;;;;;;;;;;;;6333724;28;19920;-83
2023/10/29 13:26:57;;;;;;;;;;;;;;;;;;6313572;28;19915;-83
2023/10/29 13:29:58;;;;;;;;;;;;;;;;;;6318168;28;19946;-82
2023/10/29 13:32:58;;;;;;;;;;;;;;;;;;6303050;28;20236;-84
2023/10/29 13:35:58;;;;;;;;;;;;;;;;;;6310682;28;19976;-84
2023/10/29 13:38:58;;;;;;;;;;;;;;;;;;6314659;28;19916;-84
2023/10/29 13:41:59;;;;;;;;;;;;;;;;;;6303817;28;20421;-84
2023/10/29 13:44:59;;;;;;;;;;;;;;;;;;6308116;28;19920;-85
2023/10/29 13:47:59;;;;;;;;;;;;;;;;;;6307108;28;20300;-84
2023/10/29 13:50:59;;;;;;;;;;;;;;;;;;6304776;28;19912;-85
2023/10/29 13:54:00;;;;;;;;;;;;;;;;;;6304060;28;19912;-85
2023/10/29 13:57:00;;;;;;;;;;;;;;;;;;6303667;28;19920;-85
2023/10/29 14:00:01;;;;;;;;;;;;;;;;;;6303035;28;19939;-85
2023/10/29 14:03:02;;;;;;;;;;;;;;;;;;6306050;28;20035;-84
2023/10/29 14:06:04;;;;;;;;;;;;;;;;;;6301396;28;20031;-84
2023/10/29 14:09:04;;;;;;;;;;;;;;;;;;6313546;28;19912;-85
2023/10/29 14:12:04;;;;;;;;;;;;;;;;;;6308600;28;19931;-85
2023/10/29 14:15:05;;;;;;;;;;;;;;;;;;6306083;28;19919;-85
2023/10/29 14:18:06;;;;;;;;;;;;;;;;;;6303582;28;20008;-83
2023/10/29 14:21:06;;;;;;;;;;;;;;;;;;5953245;27;10000339;-84
2023/10/29 14:24:07;;;;;;;;;;;;;;;;;;6301564;28;19920;-85
2023/10/29 14:27:07;;;;;;;;;;;;;;;;;;6303371;28;19951;-84
2023/10/29 14:30:07;;;;;;;;;;;;;;;;;;6306274;28;19955;-84
2023/10/29 14:33:07;;;;;;;;;;;;;;;;;;6306216;28;19913;-84
2023/10/29 14:36:07;;;;;;;;;;;;;;;;;;6300336;28;19923;-83
2023/10/29 14:39:08;;;;;;;;;;;;;;;;;;6320832;28;19939;-84
2023/10/29 14:42:08;;;;;;;;;;;;;;;;;;6304317;28;20360;-84
2023/10/29 14:45:09;;;;;;;;;;;;;;;;;;6301567;28;19921;-84
2023/10/29 14:48:09;;;;;;;;;;;;;;;;;;6303946;28;20450;-85
2023/10/29 14:51:09;;;;;;;;;;;;;;;;;;6305531;28;19916;-85
2023/10/29 14:54:10;;;;;;;;;;;;;;;;;;6305061;28;19925;-85
2023/10/29 14:57:10;;;;;;;;;;;;;;;;;;6301958;28;19919;-83
2023/10/29 15:00:10;;;;;;;;;;;;;;;;;;6302665;28;19913;-84
2023/10/29 15:03:10;;;;;;;;;;;;;;;;;;6309363;28;19931;-83
2023/10/29 15:06:10;;;;;;;;;;;;;;;;;;6297989;28;20015;-81
2023/10/29 15:09:11;;;;;;;;;;;;;;;;;;6298517;28;20123;-80
2023/10/29 15:12:13;;;;;;;;;;;;;;;;;;6304438;28;19938;-81
2023/10/29 15:15:13;;;;;;;;;;;;;;;;;;6297642;28;19913;-81
2023/10/29 15:18:13;;;;;;;;;;;;;;;;;;6300088;28;20396;-82
2023/10/29 15:21:14;;;;;;;;;;;;;;;;;;6299488;28;19928;-82
2023/10/29 15:24:15;;;;;;;;;;;;;;;;;;6313230;28;19928;-80
2023/10/29 15:27:15;;;;;;;;;;;;;;;;;;6317326;28;20288;-81
2023/10/29 15:30:15;;;;;;;;;;;;;;;;;;6320298;28;19919;-81
2023/10/29 15:33:15;;;;;;;;;;;;;;;;;;6306028;28;20010;-80
2023/10/29 15:36:15;;;;;;;;;;;;;;;;;;6320475;28;19918;-81
2023/10/29 15:39:15;;;;;;;;;;;;;;;;;;6312338;28;19913;-82
2023/10/29 15:42:15;;;;;;;;;;;;;;;;;;6309709;28;19912;-82
2023/10/29 15:45:16;;;;;;;;;;;;;;;;;;6308528;28;19981;-82
2023/10/29 15:48:16;;;;;;;;;;;;;;;;;;6310367;28;20386;-81
2023/10/29 15:51:17;;;;;;;;;;;;;;;;;;6326905;28;19912;-81
2023/10/29 15:54:17;;;;;;;;;;;;;;;;;;6307140;28;19912;-81
2023/10/29 15:57:18;;;;;;;;;;;;;;;;;;6303993;28;20021;-81
2023/10/29 16:00:18;;;;;;;;;;;;;;;;;;6302676;28;20015;-81
2023/10/29 16:03:18;;;;;;;;;;;;;;;;;;6305390;28;19925;-80
2023/10/29 16:06:18;;;;;;;;;;;;;;;;;;6309873;28;19951;-82
2023/10/29 16:09:18;;;;;;;;;;;;;;;;;;6303435;28;19954;-80
2023/10/29 16:12:18;;;;;;;;;;;;;;;;;;6307926;28;19920;-79
2023/10/29 16:15:18;;;;;;;;;;;;;;;;;;6305769;28;19919;-80
2023/10/29 16:18:18;;;;;;;;;;;;;;;;;;6306568;28;19920;-80
2023/10/29 16:21:19;;;;;;;;;;;;;;;;;;6301743;28;19925;-83
2023/10/29 16:24:19;;;;;;;;;;;;;;;;;;6306007;28;19929;-79
2023/10/29 16:27:19;;;;;;;;;;;;;;;;;;6308172;28;19927;-79
2023/10/29 16:30:22;;;;;;;;;;;;;;;;;;6305291;28;19919;-79
2023/10/29 16:33:22;;;;;;;;;;;;;;;;;;6323261;27;19920;-81
2023/10/29 16:36:23;;;;;;;;;;;;;;;;;;6307148;28;19923;-79
2023/10/29 16:39:23;;;;;;;;;;;;;;;;;;6307105;28;19973;-80
2023/10/29 16:42:23;;;;;;;;;;;;;;;;;;6304655;28;19920;-78
2023/10/29 16:45:23;;;;;;;;;;;;;;;;;;6306426;28;21504;-80
2023/10/29 16:48:24;;;;;;;;;;;;;;;;;;6308063;28;19912;-81
2023/10/29 16:51:24;;;;;;;;;;;;;;;;;;6299910;28;19962;-81
2023/10/29 16:54:24;;;;;;;;;;;;;;;;;;6303513;28;19912;-79
2023/10/29 16:57:24;;;;;;;;;;;;;;;;;;6322715;28;20382;-79
2023/10/29 17:00:26;;;;;;;;;;;;;;;;;;6306572;28;19912;-79
2023/10/29 17:03:26;;;;;;;;;;;;;;;;;;6323347;27;19928;-83
2023/10/29 17:06:29;;;;;;;;;;;;;;;;;;6295669;28;19920;-81
2023/10/29 17:09:29;;;;;;;;;;;;;;;;;;6302830;28;19920;-82
2023/10/29 17:12:30;;;;;;;;;;;;;;;;;;6297864;28;19919;-84
2023/10/29 17:15:30;;;;;;;;;;;;;;;;;;6306871;28;19923;-81
2023/10/29 17:18:30;;;;;;;;;;;;;;;;;;6302857;28;19969;-81
2023/10/29 17:21:30;;;;;;;;;;;;;;;;;;6319382;28;19928;-80
2023/10/29 17:24:30;;;;;;;;;;;;;;;;;;6304910;28;20376;-80
2023/10/29 17:27:32;;;;;;;;;;;;;;;;;;6303565;28;19977;-83
2023/10/29 17:30:32;;;;;;;;;;;;;;;;;;6304727;28;19916;-81
2023/10/29 17:33:32;;;;;;;;;;;;;;;;;;6306320;28;19920;-83
2023/10/29 17:36:33;;;;;;;;;;;;;;;;;;6317168;28;19912;-81
2023/10/29 17:39:33;;;;;;;;;;;;;;;;;;6301751;28;19912;-83
2023/10/29 17:42:33;;;;;;;;;;;;;;;;;;6301296;28;19919;-79
2023/10/29 17:45:34;;;;;;;;;;;;;;;;;;6321786;28;19943;-81
2023/10/29 17:48:34;;;;;;;;;;;;;;;;;;6301493;28;20292;-82
2023/10/29 17:51:34;;;;;;;;;;;;;;;;;;6302844;28;20377;-81
2023/10/29 17:54:34;;;;;;;;;;;;;;;;;;6317034;28;19912;-81
2023/10/29 17:57:34;;;;;;;;;;;;;;;;;;6323467;28;19914;-79
2023/10/29 18:00:34;;;;;;;;;;;;;;;;;;6301725;28;19922;-79
2023/10/29 18:03:34;;;;;;;;;;;;;;;;;;6308724;28;20070;-81
2023/10/29 18:06:34;;;;;;;;;;;;;;;;;;6307359;28;19922;-81
2023/10/29 18:09:35;;;;;;;;;;;;;;;;;;6306316;28;20006;-81
2023/10/29 18:12:36;;;;;;;;;;;;;;;;;;6302074;28;20097;-81
2023/10/29 18:15:36;;;;;;;;;;;;;;;;;;6302504;28;19924;-82
2023/10/29 18:18:36;;;;;;;;;;;;;;;;;;6303750;28;19924;-82
2023/10/29 18:21:36;;;;;;;;;;;;;;;;;;6321154;28;19920;-82
2023/10/29 18:24:36;;;;;;;;;;;;;;;;;;6303913;28;20585;-81
2023/10/29 18:27:38;;;;;;;;;;;;;;;;;;6302728;28;19935;-81
2023/10/29 18:30:38;;;;;;;;;;;;;;;;;;6302539;28;19912;-81
2023/10/29 18:33:38;;;;;;;;;;;;;;;;;;6302216;28;20285;-81
2023/10/29 18:36:39;;;;;;;;;;;;;;;;;;6298456;28;19916;-82
2023/10/29 18:39:39;;;;;;;;;;;;;;;;;;6300047;28;19976;-81
2023/10/29 18:42:39;;;;;;;;;;;;;;;;;;6300587;28;19935;-82
2023/10/29 18:45:40;;;;;;;;;;;;;;;;;;6302708;28;20018;-82
2023/10/29 18:48:40;;;;;;;;;;;;;;;;;;6297998;28;19920;-82
2023/10/29 18:51:40;;;;;;;;;;;;;;;;;;6301671;28;19919;-81
2023/10/29 18:54:40;;;;;;;;;;;;;;;;;;6303216;28;19919;-81
2023/10/29 18:57:40;;;;;;;;;;;;;;;;;;6302496;28;20403;-82
2023/10/29 19:00:40;;;;;;;;;;;;;;;;;;6299550;28;19919;-82
2023/10/29 19:03:41;;;;;;;;;;;;;;;;;;6298363;28;19921;-80
2023/10/29 19:06:41;;;;;;;;;;;;;;;;;;6298762;28;20304;-81
2023/10/29 19:09:41;;;;;;;;;;;;;;;;;;6299422;28;19916;-82
2023/10/29 19:12:42;;;;;;;;;;;;;;;;;;6298625;28;20046;-82
2023/10/29 19:15:42;;;;;;;;;;;;;;;;;;5968288;27;10000079;-82
2023/10/29 19:18:42;;;;;;;;;;;;;;;;;;6299599;28;20395;-83
2023/10/29 19:21:42;;;;;;;;;;;;;;;;;;6318542;28;20408;-82
2023/10/29 19:24:42;;;;;;;;;;;;;;;;;;6307652;28;20304;-82
2023/10/29 19:27:43;;;;;;;;;;;;;;;;;;6302074;28;19920;-84
2023/10/29 19:30:43;;;;;;;;;;;;;;;;;;6302926;28;20007;-82
2023/10/29 19:33:43;;;;;;;;;;;;;;;;;;6304537;28;20344;-82
2023/10/29 19:36:43;;;;;;;;;;;;;;;;;;6300593;28;19917;-82
2023/10/29 19:39:43;;;;;;;;;;;;;;;;;;6302039;28;19916;-82
2023/10/29 19:42:44;;;;;;;;;;;;;;;;;;6301314;28;19923;-82
2023/10/29 19:45:44;;;;;;;;;;;;;;;;;;6305367;28;19928;-82
2023/10/29 19:48:44;;;;;;;;;;;;;;;;;;6299647;28;19933;-82
2023/10/29 19:51:44;;;;;;;;;;;;;;;;;;6300521;28;19927;-81
2023/10/29 19:54:47;;;;;;;;;;;;;;;;;;6302805;28;19916;-84
2023/10/29 19:57:48;;;;;;;;;;;;;;;;;;6304721;28;19961;-82
2023/10/29 20:00:48;;;;;;;;;;;;;;;;;;6305164;28;19965;-82
2023/10/29 20:03:48;;;;;;;;;;;;;;;;;;6298346;28;20030;-82
2023/10/29 20:06:49;;;;;;;;;;;;;;;;;;6299257;28;19915;-82
2023/10/29 20:09:49;;;;;;;;;;;;;;;;;;6302595;28;19916;-82
2023/10/29 20:12:49;;;;;;;;;;;;;;;;;;6304262;28;19920;-81
2023/10/29 20:15:49;;;;;;;;;;;;;;;;;;6298957;28;20293;-82
2023/10/29 20:18:50;;;;;;;;;;;;;;;;;;6300073;28;20373;-82
2023/10/29 20:21:50;;;;;;;;;;;;;;;;;;6301764;28;19972;-81
2023/10/29 20:24:50;;;;;;;;;;;;;;;;;;6298943;28;19935;-81
2023/10/29 20:27:51;;;;;;;;;;;;;;;;;;6300985;28;19939;-81